Time;durP1;ratioP1;P1;durP2;ratioP2;P2;SDS_P1;SDS_P2;PMS_P1;PMS_P2;Temp;Humidity;BMP_temperature;BMP_pressure;BME280_temperature;BME280_humidity;BME280_pressure;Samples;Min_cycle;Max_cycle;Signal;HPM_P1;HPM_P2
2022/05/25 00:00:28;;;;;;;;;;;11.00;99.90;;;;;;5015057;28;20079;-66
2022/05/25 00:02:55;;;;;;;8.63;3.75;;;11.00;99.90;;;;;;5014216;28;19929;-65
2022/05/25 00:05:22;;;;;;;6.80;4.00;;;10.90;99.90;;;;;;5014080;28;20052;-65
2022/05/25 00:07:49;;;;;;;8.98;4.07;;;10.80;99.90;;;;;;4996034;28;20822;-65
2022/05/25 00:10:16;;;;;;;;;;;10.80;99.90;;;;;;5023988;28;20143;-65
2022/05/25 00:12:43;;;;;;;9.00;4.10;;;10.80;99.90;;;;;;5032772;28;19947;-66
2022/05/25 00:15:11;;;;;;;;;;;10.80;99.90;;;;;;5035132;28;20843;-66
2022/05/25 00:17:38;;;;;;;6.00;4.95;;;10.70;99.90;;;;;;5033502;28;19995;-66
2022/05/25 00:20:05;;;;;;;;;;;10.70;99.90;;;;;;5034607;28;20048;-66
2022/05/25 00:22:44;;;;;;;10.00;4.22;;;10.70;99.90;;;;;;5034150;28;19925;-66
2022/05/25 00:25:17;;;;;;;9.75;4.47;;;10.70;99.90;;;;;;5033512;28;20669;-66
2022/05/25 00:27:44;;;;;;;7.72;4.13;;;10.70;99.90;;;;;;5033582;28;20044;-66
2022/05/25 00:30:11;;;;;;;;;;;10.70;99.90;;;;;;5033812;28;20052;-65
2022/05/25 00:32:40;;;;;;;9.32;3.60;;;10.70;99.90;;;;;;5033674;28;19925;-66
2022/05/25 00:35:09;;;;;;;17.25;4.60;;;10.70;99.90;;;;;;5033725;28;20048;-66
2022/05/25 00:37:36;;;;;;;10.43;4.07;;;10.70;99.90;;;;;;5033657;28;20824;-66
2022/05/25 00:40:03;;;;;;;;;;;10.70;99.90;;;;;;5033765;28;20566;-65
2022/05/25 00:42:30;;;;;;;4.15;3.58;;;10.60;99.90;;;;;;5016252;28;19932;-66
2022/05/25 00:44:57;;;;;;;10.45;4.07;;;10.60;99.90;;;;;;5033834;28;20380;-66
2022/05/25 00:47:25;;;;;;;;;;;10.60;99.90;;;;;;5033656;28;20052;-65
2022/05/25 00:49:52;;;;;;;;;;;10.60;99.90;;;;;;5027854;28;19928;-65
2022/05/25 00:52:19;;;;;;;9.45;4.57;;;10.60;99.90;;;;;;4994596;28;19921;-66
2022/05/25 00:54:50;;;;;;;;;;;10.60;99.90;;;;;;5014636;28;20054;-65
2022/05/25 00:57:24;;;;;;;9.25;3.75;;;10.60;99.90;;;;;;5015808;28;20006;-65
2022/05/25 00:59:59;;;;;;;7.22;3.55;;;10.60;99.90;;;;;;5017316;28;20050;-66
2022/05/25 01:02:30;;;;;;;5.93;3.50;;;10.60;99.90;;;;;;5017068;28;20041;-66
2022/05/25 01:04:57;;;;;;;8.52;3.60;;;10.50;99.90;;;;;;5017510;28;20108;-66
2022/05/25 01:07:59;;;;;;;5.88;3.22;;;10.50;99.90;;;;;;5016669;28;20068;-66
2022/05/25 01:11:15;;;;;;;8.48;4.07;;;10.50;99.90;;;;;;5017247;28;20045;-66
2022/05/25 01:14:11;;;;;;;4.50;3.22;;;10.50;99.90;;;;;;5036241;28;20053;-67
2022/05/25 01:17:01;;;;;;;6.22;3.08;;;10.40;99.90;;;;;;5019889;28;20083;-67
2022/05/25 01:19:43;;;;;;;7.43;3.55;;;10.40;99.90;;;;;;5018122;28;20060;-66
2022/05/25 01:22:38;;;;;;;3.58;2.88;;;10.40;99.90;;;;;;5018897;28;20060;-66
2022/05/25 01:25:42;;;;;;;3.05;2.75;;;10.40;99.90;;;;;;5018485;28;20904;-67
2022/05/25 01:28:21;;;;;;;3.33;3.03;;;10.40;99.90;;;;;;5036548;28;20052;-66
2022/05/25 01:30:53;;;;;;;6.65;2.92;;;10.40;99.90;;;;;;5018363;28;20587;-66
2022/05/25 01:33:27;;;;;;;3.25;2.90;;;10.40;99.90;;;;;;5036697;28;20045;-66
2022/05/25 01:36:01;;;;;;;4.10;2.65;;;10.40;99.90;;;;;;5017731;28;20086;-66
2022/05/25 01:38:36;;;;;;;3.17;2.88;;;10.40;99.90;;;;;;5036434;28;20049;-66
2022/05/25 01:41:14;;;;;;;12.52;3.40;;;10.40;99.90;;;;;;5036459;28;20072;-66
2022/05/25 01:43:44;;;;;;;5.10;3.42;;;10.40;99.90;;;;;;5036294;28;20049;-66
2022/05/25 01:46:26;;;;;;;8.95;3.38;;;10.40;99.90;;;;;;5036029;28;20126;-66
2022/05/25 01:48:55;;;;;;;6.07;3.30;;;10.40;99.90;;;;;;5036158;28;20045;-66
2022/05/25 01:51:31;;;;;;;4.03;3.15;;;10.40;99.90;;;;;;5014104;28;20095;-65
2022/05/25 01:54:01;;;;;;;6.90;3.50;;;10.40;99.90;;;;;;5018487;28;20049;-66
2022/05/25 01:56:32;;;;;;;4.68;4.03;;;10.40;99.90;;;;;;5016250;28;20391;-66
2022/05/25 01:59:03;;;;;;;3.67;3.30;;;10.40;99.90;;;;;;5015671;28;20815;-66
2022/05/25 02:01:30;;;;;;;4.75;3.60;;;10.40;99.90;;;;;;5016553;28;20045;-66
2022/05/25 02:06:43;;;;;;;5.63;3.92;;;10.40;99.90;;;;;;5016141;28;20044;-67
2022/05/25 02:09:25;;;;;;;6.88;3.42;;;10.40;99.90;;;;;;4998213;28;20683;-67
2022/05/25 02:12:30;;;;;;;6.53;3.33;;;10.40;99.90;;;;;;5017030;28;20061;-66
2022/05/25 02:15:11;;;;;;;13.88;4.45;;;10.40;99.90;;;;;;5035663;28;20045;-66
2022/05/25 02:17:41;;;;;;;3.47;3.17;;;10.40;99.90;;;;;;5017303;28;20053;-66
2022/05/25 02:20:21;;;;;;;10.52;4.72;;;10.40;99.90;;;;;;5035481;28;20052;-66
2022/05/25 02:22:52;;;;;;;3.95;3.38;;;10.40;99.90;;;;;;5035783;28;20152;-66
2022/05/25 02:25:30;;;;;;;3.58;3.28;;;10.40;99.90;;;;;;5017304;28;20045;-66
2022/05/25 02:28:04;;;;;;;6.63;3.33;;;10.40;99.90;;;;;;5035650;28;20222;-66
2022/05/25 02:30:35;;;;;;;4.88;3.35;;;10.40;99.90;;;;;;5035318;28;20049;-65
2022/05/25 02:33:37;;;;;;;5.75;3.70;;;10.40;99.90;;;;;;5035646;28;20067;-66
2022/05/25 02:36:08;;;;;;;5.47;3.10;;;10.40;99.90;;;;;;5022138;28;20555;-66
2022/05/25 02:38:37;;;;;;;5.40;3.00;;;10.50;99.90;;;;;;5035061;28;20040;-66
2022/05/25 02:41:10;;;;;;;3.72;2.65;;;10.50;99.90;;;;;;5035216;28;20120;-66
2022/05/25 02:43:38;;;;;;;5.13;3.45;;;10.50;99.90;;;;;;5035319;28;20059;-66
2022/05/25 02:46:06;;;;;;;7.03;3.30;;;10.50;99.90;;;;;;5035316;28;20465;-66
2022/05/25 02:48:37;;;;;;;9.25;4.32;;;10.50;99.90;;;;;;5035256;28;20094;-66
2022/05/25 02:51:04;;;;;;;4.50;3.28;;;10.50;99.90;;;;;;5034119;28;20052;-66
2022/05/25 02:53:31;;;;;;;6.00;4.15;;;10.40;99.90;;;;;;4995319;28;20041;-66
2022/05/25 02:55:57;;;;;;;;;;;10.40;99.90;;;;;;4998035;28;20045;-67
2022/05/25 02:58:24;;;;;;;4.25;3.13;;;10.40;99.90;;;;;;5014838;28;19924;-66
2022/05/25 03:00:52;;;;;;;4.35;3.80;;;10.40;99.90;;;;;;5022122;28;20041;-67
2022/05/25 03:03:19;;;;;;;5.15;3.13;;;10.40;99.90;;;;;;5015968;28;20049;-67
2022/05/25 03:05:46;;;;;;;5.82;3.50;;;10.40;99.90;;;;;;5034929;28;20041;-67
2022/05/25 03:08:13;;;;;;;5.50;3.50;;;10.40;99.90;;;;;;5016416;28;20912;-67
2022/05/25 03:10:40;;;;;;;9.23;3.50;;;10.40;99.90;;;;;;5035165;28;20823;-66
2022/05/25 03:13:09;;;;;;;10.63;3.67;;;10.40;99.90;;;;;;5035491;28;20487;-66
2022/05/25 03:15:37;;;;;;;4.30;3.50;;;10.40;99.90;;;;;;5035190;28;20041;-67
2022/05/25 03:18:05;;;;;;;5.75;3.50;;;10.40;99.90;;;;;;5014936;28;20618;-66
2022/05/25 03:20:32;;;;;;;6.80;3.35;;;10.40;99.90;;;;;;5034739;28;20048;-67
2022/05/25 03:22:59;;;;;;;5.35;3.38;;;10.40;99.90;;;;;;5035895;28;20045;-67
2022/05/25 03:25:25;;;;;;;6.38;3.55;;;10.30;99.90;;;;;;5034903;28;20055;-67
2022/05/25 03:27:53;;;;;;;4.25;3.17;;;10.30;99.90;;;;;;5035218;28;20543;-67
2022/05/25 03:30:20;;;;;;;7.35;2.95;;;10.30;99.90;;;;;;5016296;28;20598;-67
2022/05/25 03:32:47;;;;;;;5.75;3.30;;;10.30;99.90;;;;;;5016608;28;20760;-66
2022/05/25 03:35:15;;;;;;;4.05;3.65;;;10.30;99.90;;;;;;5034595;28;20887;-67
2022/05/25 03:37:42;;;;;;;4.88;3.90;;;10.30;99.90;;;;;;5016534;28;20048;-66
2022/05/25 03:40:10;;;;;;;;;;;10.30;99.90;;;;;;5035988;28;20041;-67
2022/05/25 03:42:39;;;;;;;4.18;2.67;;;10.30;99.90;;;;;;5034496;28;19924;-67
2022/05/25 03:45:07;;;;;;;5.72;3.38;;;10.30;99.90;;;;;;5034919;28;20049;-66
2022/05/25 03:47:34;;;;;;;4.85;3.40;;;10.30;99.90;;;;;;5034600;28;20571;-67
2022/05/25 03:50:01;;;;;;;3.53;2.97;;;10.30;99.90;;;;;;5034651;28;20990;-66
2022/05/25 03:52:28;;;;;;;7.15;3.08;;;10.30;99.90;;;;;;5029047;28;20068;-66
2022/05/25 03:54:55;;;;;;;7.68;3.72;;;10.30;99.90;;;;;;5015808;28;20144;-66
2022/05/25 03:57:22;;;;;;;5.00;3.72;;;10.30;99.90;;;;;;4997141;28;20037;-66
2022/05/25 03:59:50;;;;;;;8.15;4.15;;;10.30;99.90;;;;;;5013329;28;20051;-67
2022/05/25 04:02:17;;;;;;;6.00;3.30;;;10.40;99.90;;;;;;5013408;28;20037;-67
2022/05/25 04:04:45;;;;;;;4.00;3.60;;;10.30;99.90;;;;;;5012477;28;20045;-67
2022/05/25 04:07:12;;;;;;;9.65;4.72;;;10.30;99.90;;;;;;4996903;28;20542;-67
2022/05/25 04:09:39;;;;;;;3.95;3.63;;;10.30;99.90;;;;;;5018665;28;20091;-67
2022/05/25 04:12:08;;;;;;;3.50;3.20;;;10.30;99.90;;;;;;5033790;28;20041;-67
2022/05/25 04:14:35;;;;;;;3.42;3.05;;;10.30;99.90;;;;;;5034105;28;20052;-67
2022/05/25 04:17:02;;;;;;;3.90;3.60;;;10.30;99.90;;;;;;5016489;28;20786;-67
2022/05/25 04:19:30;;;;;;;6.97;3.78;;;10.40;99.90;;;;;;5034196;28;20052;-67
2022/05/25 04:21:57;;;;;;;4.20;3.38;;;10.30;99.90;;;;;;5034164;28;20922;-66
2022/05/25 04:24:24;;;;;;;;;;;10.40;99.90;;;;;;5000311;28;20045;-66
2022/05/25 04:26:51;;;;;;;6.35;3.75;;;10.40;99.90;;;;;;5015895;28;19920;-66
2022/05/25 04:29:17;;;;;;;;;;;10.40;99.90;;;;;;5035447;28;20059;-66
2022/05/25 04:31:44;;;;;;;6.72;3.00;;;10.30;99.90;;;;;;5017346;28;19986;-55
2022/05/25 04:34:13;;;;;;;3.78;3.47;;;10.40;99.90;;;;;;5037519;28;20068;-56
2022/05/25 04:36:41;;;;;;;4.00;3.15;;;10.40;99.90;;;;;;5037402;28;20106;-54
2022/05/25 04:39:08;;;;;;;3.85;3.42;;;10.40;99.90;;;;;;5037659;28;20482;-57
2022/05/25 04:41:36;;;;;;;3.60;3.22;;;10.40;99.90;;;;;;5037003;28;20037;-55
2022/05/25 04:44:04;;;;;;;4.60;3.90;;;10.40;99.90;;;;;;5020177;28;20381;-54
2022/05/25 04:46:31;;;;;;;5.85;3.13;;;10.40;99.90;;;;;;5019403;28;20048;-56
2022/05/25 04:49:00;;;;;;;3.47;3.03;;;10.40;99.90;;;;;;5018707;28;20041;-53
2022/05/25 04:51:30;;;;;;;4.55;3.58;;;10.50;99.90;;;;;;5019863;28;20052;-54
2022/05/25 04:53:57;;;;;;;7.10;3.80;;;10.50;99.90;;;;;;5027670;28;20029;-55
2022/05/25 04:59:10;;;;;;;6.50;4.80;;;10.50;99.90;;;;;;5036887;28;20049;-56
2022/05/25 05:01:37;;;;;;;6.07;3.97;;;10.50;99.90;;;;;;5037415;28;20116;-55
2022/05/25 05:04:04;;;;;;;3.70;3.17;;;10.60;99.90;;;;;;5002419;28;20075;-56
2022/05/25 05:06:30;;;;;;;;;;;10.60;99.90;;;;;;5020072;28;20053;-57
2022/05/25 05:08:57;;;;;;;4.20;3.80;;;10.60;99.90;;;;;;5036911;28;19925;-56
2022/05/25 05:11:24;;;;;;;;;;;10.60;99.90;;;;;;5031814;28;20066;-53
2022/05/25 05:13:52;;;;;;;5.18;4.30;;;10.70;99.90;;;;;;5036798;28;19924;-55
2022/05/25 05:16:19;;;;;;;5.70;4.50;;;10.70;99.90;;;;;;5018325;28;20029;-55
2022/05/25 05:18:55;;;;;;;7.15;4.13;;;10.70;99.90;;;;;;5003146;28;20048;-56
2022/05/25 05:21:35;;;;;;;8.18;5.70;;;10.70;99.90;;;;;;5018330;28;20279;-56
2022/05/25 05:24:03;;;;;;;5.63;4.75;;;10.70;99.90;;;;;;5017676;28;20057;-56
2022/05/25 05:26:30;;;;;;;7.30;3.92;;;10.80;99.90;;;;;;5036038;28;20052;-56
2022/05/25 05:28:56;;;;;;;;;;;10.70;99.90;;;;;;5037046;28;20041;-56
2022/05/25 05:31:23;;;;;;;6.28;4.05;;;10.80;99.90;;;;;;5036198;28;20387;-56
2022/05/25 05:33:50;;;;;;;6.72;4.72;;;10.80;99.90;;;;;;5018717;28;20534;-55
2022/05/25 05:36:30;;;;;;;5.22;4.45;;;10.90;99.90;;;;;;5035949;28;20043;-57
2022/05/25 05:39:04;;;;;;;4.72;4.28;;;10.80;99.90;;;;;;5036257;28;20071;-54
2022/05/25 05:41:43;;;;;;;7.15;5.35;;;10.90;99.90;;;;;;5036362;28;20094;-55
2022/05/25 05:44:14;;;;;;;4.32;3.78;;;10.90;99.90;;;;;;5036519;28;20060;-56
2022/05/25 05:46:42;;;;;;;7.78;4.45;;;10.90;99.90;;;;;;5018845;28;20053;-55
2022/05/25 05:49:10;;;;;;;6.72;4.70;;;10.90;99.90;;;;;;5000886;28;20815;-56
2022/05/25 05:51:37;;;;;;;8.15;4.88;;;11.00;99.90;;;;;;5035223;28;20041;-56
2022/05/25 05:54:05;;;;;;;7.50;5.38;;;11.00;99.90;;;;;;5000143;28;20040;-55
2022/05/25 05:56:32;;;;;;;6.28;4.78;;;11.10;99.90;;;;;;5017687;28;20049;-57
2022/05/25 05:59:00;;;;;;;8.00;4.50;;;11.10;99.90;;;;;;5014587;28;20041;-58
2022/05/25 06:01:28;;;;;;;8.15;4.80;;;11.20;99.90;;;;;;5015752;28;20049;-55
2022/05/25 06:03:55;;;;;;;7.53;4.85;;;11.30;99.90;;;;;;5014279;28;20528;-56
2022/05/25 06:06:25;;;;;;;6.65;5.03;;;11.30;99.90;;;;;;5014559;28;20139;-53
2022/05/25 06:08:52;;;;;;;7.35;4.28;;;11.40;99.90;;;;;;5016170;28;20041;-55
2022/05/25 06:11:20;;;;;;;5.07;4.47;;;11.50;99.90;;;;;;5032973;28;20144;-56
2022/05/25 06:13:47;;;;;;;4.88;4.38;;;11.50;99.90;;;;;;5035752;28;20041;-56
2022/05/25 06:21:46;;;;;;;7.13;4.32;;;11.70;99.90;;;;;;5035402;28;20094;-56
2022/05/25 06:24:12;;;;;;;;;;;11.70;99.90;;;;;;5052376;28;20098;-56
2022/05/25 06:26:39;;;;;;;8.00;4.05;;;11.70;99.90;;;;;;5054879;28;19925;-58
2022/05/25 06:29:06;;;;;;;;;;;11.80;99.90;;;;;;5055417;28;20147;-57
2022/05/25 06:31:33;;;;;;;7.45;4.88;;;11.80;99.90;;;;;;5054109;28;19959;-55
2022/05/25 06:34:00;;;;;;;5.13;3.42;;;11.90;99.90;;;;;;5055162;28;20395;-55
2022/05/25 06:36:28;;;;;;;;;;;11.90;99.90;;;;;;5054920;28;20055;-57
2022/05/25 06:38:56;;;;;;;;;;;11.90;99.90;;;;;;5037341;28;19924;-55
2022/05/25 06:41:23;;;;;;;3.83;3.50;;;11.90;99.90;;;;;;5026793;28;19970;-56
2022/05/25 06:43:50;;;;;;;4.55;3.55;;;11.90;99.90;;;;;;5016957;28;20208;-56
2022/05/25 06:46:19;;;;;;;;;;;11.90;99.90;;;;;;5035369;28;20048;-56
2022/05/25 06:48:49;;;;;;;7.05;3.47;;;12.00;99.90;;;;;;4996731;28;20459;-58
2022/05/25 06:51:27;;;;;;;3.55;3.25;;;12.00;99.90;;;;;;5015206;28;20041;-57
2022/05/25 06:53:55;;;;;;;3.47;3.10;;;12.00;99.90;;;;;;4996506;28;20784;-57
2022/05/25 06:56:24;;;;;;;3.88;3.33;;;12.00;99.90;;;;;;5014064;28;20037;-55
2022/05/25 06:58:52;;;;;;;6.65;3.78;;;12.00;99.90;;;;;;5013795;28;20049;-56
2022/05/25 07:01:20;;;;;;;4.25;3.85;;;12.10;99.90;;;;;;4996654;28;20520;-56
2022/05/25 07:03:47;;;;;;;4.70;3.90;;;12.10;99.90;;;;;;4997569;28;20531;-57
2022/05/25 07:06:17;;;;;;;6.05;3.92;;;12.10;99.90;;;;;;5014388;28;20564;-58
2022/05/25 07:08:45;;;;;;;7.90;3.80;;;12.20;99.90;;;;;;5013527;28;20053;-56
2022/05/25 07:11:12;;;;;;;5.85;4.18;;;12.20;99.90;;;;;;5012987;28;20495;-55
2022/05/25 07:13:40;;;;;;;5.78;4.82;;;12.30;99.90;;;;;;5035028;28;20045;-55
2022/05/25 07:16:13;;;;;;;5.10;3.55;;;12.30;99.90;;;;;;5000322;28;20044;-55
2022/05/25 07:18:41;;;;;;;7.68;4.57;;;12.40;99.90;;;;;;5034951;28;20033;-53
2022/05/25 07:21:15;;;;;;;7.85;3.92;;;12.60;99.90;;;;;;5017025;28;20037;-54
2022/05/25 07:23:44;;;;;;;5.57;4.47;;;12.70;99.90;;;;;;5017180;28;20049;-52
2022/05/25 07:26:11;;;;;;;5.22;4.30;;;12.80;99.90;;;;;;5016501;28;20064;-53
2022/05/25 07:28:38;;;;;;;6.00;4.55;;;12.90;99.90;;;;;;5016082;28;20051;-56
2022/05/25 07:31:13;;;;;;;5.43;3.92;;;12.90;99.90;;;;;;5034346;28;20049;-57
2022/05/25 07:33:44;;;;;;;4.22;3.85;;;13.00;99.90;;;;;;5015985;28;20037;-58
2022/05/25 07:36:12;;;;;;;6.32;4.65;;;13.10;99.90;;;;;;5033799;28;20323;-57
2022/05/25 07:38:44;;;;;;;7.72;5.43;;;13.30;99.90;;;;;;5015719;28;20116;-57
2022/05/25 07:41:12;;;;;;;4.82;4.22;;;13.40;99.90;;;;;;5015940;28;20127;-55
2022/05/25 07:43:41;;;;;;;10.30;5.50;;;13.60;99.90;;;;;;5015855;28;20060;-57
2022/05/25 07:46:08;;;;;;;7.50;5.10;;;13.70;99.90;;;;;;5034551;28;20531;-58
2022/05/25 07:48:36;;;;;;;5.63;4.65;;;13.90;99.90;;;;;;5015777;28;20049;-57
2022/05/25 07:51:04;;;;;;;4.82;4.20;;;14.10;99.90;;;;;;5034620;28;20060;-58
2022/05/25 07:56:17;;;;;;;6.78;3.72;;;14.50;99.90;;;;;;5016437;28;20117;-56
2022/05/25 07:58:45;;;;;;;6.10;3.00;;;14.70;99.90;;;;;;4997664;28;20238;-58
2022/05/25 08:01:15;;;;;;;3.67;2.47;;;14.80;99.90;;;;;;4996367;28;20968;-57
2022/05/25 08:06:32;;;;;;;2.25;1.67;;;15.00;99.90;;;;;;5015407;28;20115;-53
2022/05/25 08:08:59;;;;;;;4.07;2.05;;;15.10;99.90;;;;;;5016239;28;20057;-54
2022/05/25 08:11:25;;;;;;;;;;;15.10;99.90;;;;;;5036619;28;20061;-53
2022/05/25 08:13:55;;;;;;;2.03;1.38;;;15.20;99.90;;;;;;5038486;28;19964;-64
2022/05/25 08:16:22;;;;;;;1.27;1.17;;;15.40;99.90;;;;;;5037660;28;20051;-54
2022/05/25 08:18:49;;;;;;;3.90;1.75;;;15.50;99.90;;;;;;5019358;28;20049;-55
2022/05/25 08:21:16;;;;;;;;;;;15.70;99.90;;;;;;5038056;28;20136;-57
2022/05/25 08:26:03;;;;;;;1.75;1.65;;;16.00;99.90;;;;;;5063947;27;20657;-57
2022/05/25 08:28:30;;;;;;;1.77;1.48;;;16.30;99.90;;;;;;5051344;28;20075;-61
2022/05/25 08:30:57;;;;;;;;;;;16.40;99.90;;;;;;5034650;28;20060;-57
2022/05/25 08:33:24;;;;;;;3.35;1.55;;;16.60;99.90;;;;;;5051232;28;19920;-56
2022/05/25 08:35:51;;;;;;;4.55;1.17;;;16.60;99.90;;;;;;5051492;28;20054;-54
2022/05/25 08:38:21;;;;;;;1.45;1.05;;;16.60;99.90;;;;;;5049172;28;20548;-67
2022/05/25 08:40:49;;;;;;;1.33;0.90;;;16.60;99.90;;;;;;5049842;28;20041;-57
2022/05/25 08:43:24;;;;;;;1.70;1.05;;;16.70;99.90;;;;;;5049442;28;20076;-61
2022/05/25 08:46:01;;;;;;;1.63;0.88;;;16.70;99.90;;;;;;5031427;28;20060;-56
2022/05/25 08:48:29;;;;;;;2.42;1.10;;;16.70;99.90;;;;;;5037235;28;20045;-56
2022/05/25 08:51:07;;;;;;;1.48;1.10;;;16.80;99.90;;;;;;5048863;28;20758;-55
2022/05/25 08:53:35;;;;;;;2.30;1.10;;;16.80;99.90;;;;;;5051665;28;20360;-57
2022/05/25 08:56:21;;;;;;;1.30;0.80;;;16.70;99.90;;;;;;5049513;28;20076;-56
2022/05/25 08:58:49;;;;;;;1.45;0.80;;;16.70;99.90;;;;;;5048758;28;20036;-56
2022/05/25 09:01:32;;;;;;;1.17;0.77;;;16.70;99.90;;;;;;5065521;28;20048;-55
2022/05/25 09:04:05;;;;;;;3.15;1.13;;;16.60;99.90;;;;;;5049394;28;20076;-55
2022/05/25 09:07:29;;;;;;;3.42;1.10;;;16.60;99.90;;;;;;5050437;28;20040;-55
2022/05/25 09:09:55;;;;;;;1.13;0.98;;;16.60;99.90;;;;;;5033653;28;20803;-57
2022/05/25 09:12:35;;;;;;;1.40;1.30;;;16.60;99.90;;;;;;5045024;28;20040;-56
2022/05/25 09:15:07;;;;;;;1.45;0.93;;;16.60;99.90;;;;;;5049898;28;20052;-55
2022/05/25 09:17:43;;;;;;;3.63;1.27;;;16.60;99.90;;;;;;5036582;28;20090;-56
2022/05/25 09:20:13;;;;;;;1.40;1.30;;;16.60;99.90;;;;;;5030928;28;20037;-57
2022/05/25 09:22:41;;;;;;;2.15;1.60;;;16.70;99.90;;;;;;5028768;28;20246;-55
2022/05/25 09:25:12;;;;;;;2.40;1.73;;;16.60;99.90;;;;;;5034080;28;20040;-55
2022/05/25 09:27:44;;;;;;;4.95;1.95;;;16.60;99.90;;;;;;5039525;28;20033;-57
2022/05/25 09:30:13;;;;;;;4.25;2.58;;;16.70;99.90;;;;;;5039224;28;20120;-55
2022/05/25 09:32:50;;;;;;;2.50;2.30;;;16.70;99.90;;;;;;5023580;28;20048;-55
2022/05/25 09:35:26;;;;;;;3.70;2.28;;;16.80;99.90;;;;;;5028983;28;20068;-57
2022/05/25 09:38:04;;;;;;;3.13;2.70;;;16.80;99.90;;;;;;5016735;28;20063;-57
2022/05/25 09:40:39;;;;;;;4.03;2.67;;;16.90;99.90;;;;;;5018974;28;20148;-55
2022/05/25 09:43:11;;;;;;;3.15;2.15;;;17.00;99.90;;;;;;5037225;28;20053;-56
2022/05/25 09:45:38;;;;;;;2.47;2.28;;;17.00;99.90;;;;;;5035372;28;20037;-53
2022/05/25 09:48:37;;;;;;;3.05;1.73;;;17.00;99.90;;;;;;5037666;28;20098;-56
2022/05/25 09:51:22;;;;;;;3.95;1.83;;;17.10;99.90;;;;;;5034857;28;20071;-55
2022/05/25 09:53:56;;;;;;;4.22;2.80;;;17.10;99.90;;;;;;5035647;28;20567;-54
2022/05/25 09:56:35;;;;;;;4.68;2.97;;;17.10;99.90;;;;;;5036450;28;20051;-55
2022/05/25 09:59:13;;;;;;;2.97;2.15;;;17.10;99.90;;;;;;5034146;28;20624;-55
2022/05/25 10:01:45;;;;;;;2.28;1.90;;;17.20;99.90;;;;;;5035210;28;20045;-54
2022/05/25 10:04:33;;;;;;;5.15;2.47;;;17.20;99.90;;;;;;5035736;28;20048;-55
2022/05/25 10:07:12;;;;;;;2.40;2.20;;;17.20;99.90;;;;;;5036349;28;20088;-56
2022/05/25 10:09:47;;;;;;;2.50;2.30;;;17.20;99.90;;;;;;5036961;28;20077;-54
2022/05/25 10:12:40;;;;;;;2.75;2.03;;;17.30;99.90;;;;;;5036160;28;20499;-55
2022/05/25 10:15:09;;;;;;;1.98;1.77;;;17.30;99.90;;;;;;5035246;28;20585;-54
2022/05/25 10:17:42;;;;;;;2.63;1.98;;;17.40;99.90;;;;;;5034931;28;20052;-55
2022/05/25 10:20:18;;;;;;;2.63;2.08;;;17.50;99.90;;;;;;5036263;28;20457;-54
2022/05/25 10:22:48;;;;;;;3.70;2.10;;;17.50;99.90;;;;;;5036550;28;20831;-57
2022/05/25 10:25:39;;;;;;;2.92;2.28;;;17.50;99.90;;;;;;5035562;28;20052;-54
2022/05/25 10:28:21;;;;;;;3.25;2.25;;;17.50;99.90;;;;;;5034847;28;20071;-56
2022/05/25 10:37:01;;;;;;;3.55;2.03;;;17.70;99.90;;;;;;5035349;28;20057;-56
2022/05/25 10:39:36;;;;;;;1.88;1.50;;;18.10;99.90;;;;;;5034711;28;20045;-56
2022/05/25 10:42:22;;;;;;;5.97;1.67;;;18.40;99.90;;;;;;5035566;28;20682;-56
2022/05/25 10:45:07;;;;;;;2.28;2.08;;;18.60;99.90;;;;;;5050847;28;20053;-56
2022/05/25 10:50:25;;;;;;;9.50;3.08;;;18.90;99.90;;;;;;5014133;28;20049;-56
2022/05/25 10:52:59;;;;;;;2.08;1.73;;;19.00;99.90;;;;;;5015111;28;20419;-57
2022/05/25 10:55:34;;;;;;;3.85;1.73;;;19.00;99.90;;;;;;5014708;28;20058;-56
2022/05/25 10:58:17;;;;;;;2.92;2.25;;;19.00;99.90;;;;;;5015579;28;20069;-57
2022/05/25 11:01:05;;;;;;;2.50;2.25;;;19.00;99.90;;;;;;5028747;28;20041;-56
2022/05/25 11:03:56;;;;;;;3.78;2.30;;;19.00;99.90;;;;;;5035699;28;20057;-56
2022/05/25 11:07:02;;;;;;;6.70;2.22;;;18.80;99.90;;;;;;5017545;28;20040;-55
2022/05/25 11:09:51;;;;;;;3.13;1.98;;;18.90;99.90;;;;;;5035284;28;20041;-57
2022/05/25 11:12:25;;;;;;;4.53;1.90;;;19.10;99.90;;;;;;5032628;28;20056;-55
2022/05/25 11:15:13;;;;;;;2.47;1.88;;;19.30;99.90;;;;;;5024146;28;20053;-57
2022/05/25 11:18:04;;;;;;;3.55;1.77;;;19.40;99.90;;;;;;5025862;28;20064;-57
2022/05/25 11:21:07;;;;;;;2.42;2.22;;;19.40;99.90;;;;;;5025226;28;20056;-56
2022/05/25 11:23:37;;;;;;;2.22;1.75;;;19.40;99.90;;;;;;5024070;28;20057;-56
2022/05/25 11:26:32;;;;;;;3.50;1.60;;;19.30;99.90;;;;;;5029916;28;20038;-56
2022/05/25 11:29:12;;;;;;;3.92;1.80;;;19.30;99.90;;;;;;5025534;28;20044;-56
2022/05/25 11:32:18;;;;;;;1.85;1.70;;;19.20;99.90;;;;;;5024877;28;20586;-56
2022/05/25 11:34:58;;;;;;;1.85;1.67;;;19.30;99.90;;;;;;5025108;28;20111;-57
2022/05/25 11:37:53;;;;;;;2.65;1.80;;;19.30;99.90;;;;;;5024080;28;20037;-56
2022/05/25 11:40:35;;;;;;;2.35;2.15;;;19.50;99.90;;;;;;5042962;28;20049;-57
2022/05/25 11:43:33;;;;;;;3.40;1.90;;;19.80;99.90;;;;;;5037227;28;20751;-60
2022/05/25 11:46:10;;;;;;;2.00;1.90;;;20.20;99.90;;;;;;5025016;28;20583;-58
2022/05/25 11:49:15;;;;;;;5.78;1.75;;;20.50;99.90;;;;;;5029754;28;20055;-56
2022/05/25 11:52:00;;;;;;;3.17;1.83;;;20.90;99.90;;;;;;5031830;28;20055;-56
2022/05/25 11:54:43;;;;;;;2.47;1.60;;;21.00;99.90;;;;;;5034284;28;20048;-54
2022/05/25 11:57:27;;;;;;;4.97;1.73;;;21.00;99.90;;;;;;5033233;28;20103;-55
2022/05/25 12:00:06;;;;;;;4.32;1.80;;;20.80;99.90;;;;;;5033786;28;20037;-58
2022/05/25 12:02:40;;;;;;;5.53;2.58;;;20.50;99.90;;;;;;5032597;28;20041;-54
2022/05/25 12:05:17;;;;;;;3.30;1.85;;;20.30;99.90;;;;;;5033907;28;20033;-54
2022/05/25 12:08:18;;;;;;;2.95;1.85;;;20.00;99.90;;;;;;5034636;28;20119;-54
2022/05/25 12:10:52;;;;;;;4.25;3.15;;;19.70;99.90;;;;;;5033717;28;20041;-53
2022/05/25 12:13:37;;;;;;;2.75;2.33;;;19.60;99.90;;;;;;5034173;28;20588;-55
2022/05/25 12:16:24;;;;;;;3.80;2.30;;;19.40;99.90;;;;;;5032748;28;20966;-56
2022/05/25 12:19:14;;;;;;;4.00;2.33;;;19.40;99.90;;;;;;5034058;28;20048;-53
2022/05/25 12:21:49;;;;;;;3.40;2.67;;;19.60;99.90;;;;;;5033455;28;20041;-56
2022/05/25 12:24:31;;;;;;;3.25;2.33;;;19.80;99.90;;;;;;5034577;28;20706;-57
2022/05/25 12:27:01;;;;;;;3.78;2.45;;;19.90;99.90;;;;;;5033582;28;20053;-61
2022/05/25 12:29:33;;;;;;;4.63;2.05;;;19.80;99.90;;;;;;5034189;28;20758;-57
2022/05/25 12:32:00;;;;;;;5.28;2.13;;;19.90;99.90;;;;;;5033453;28;20106;-57
2022/05/25 12:34:46;;;;;;;4.10;2.05;;;20.00;99.90;;;;;;5031629;28;20051;-58
2022/05/25 12:37:23;;;;;;;3.92;1.90;;;20.20;99.90;;;;;;5033499;28;20399;-58
2022/05/25 12:39:50;;;;;;;2.55;2.13;;;20.50;99.90;;;;;;5034432;28;21040;-57
2022/05/25 12:42:24;;;;;;;5.20;2.00;;;20.80;99.90;;;;;;5031930;28;20104;-54
2022/05/25 12:50:52;;;;;;;3.97;2.08;;;21.50;99.90;;;;;;5014622;28;19925;-56
2022/05/25 12:53:26;;;;;;;2.63;1.55;;;21.80;99.90;;;;;;4996267;28;20615;-56
2022/05/25 12:55:59;;;;;;;2.40;1.88;;;22.00;99.90;;;;;;5014209;28;20045;-55
2022/05/25 12:58:41;;;;;;;5.53;1.52;;;21.90;94.60;;;;;;5013803;28;20049;-56
2022/05/25 13:01:34;;;;;;;2.25;1.65;;;22.00;99.90;;;;;;5013442;28;20049;-58
2022/05/25 13:04:19;;;;;;;4.97;2.00;;;22.10;99.90;;;;;;5023559;28;20045;-54
2022/05/25 13:06:47;;;;;;;3.95;1.73;;;22.30;99.90;;;;;;5012392;28;20055;-59
2022/05/25 13:09:39;;;;;;;6.15;1.77;;;22.40;99.90;;;;;;5014961;28;20052;-58
2022/05/25 13:12:40;;;;;;;2.08;1.67;;;22.40;99.40;;;;;;5035623;28;20041;-58
2022/05/25 13:15:37;;;;;;;5.50;2.33;;;22.60;99.90;;;;;;5036590;28;20737;-58
2022/05/25 13:18:07;;;;;;;2.47;2.07;;;22.70;99.50;;;;;;5046230;28;20064;-59
2022/05/25 13:20:46;;;;;;;2.45;2.00;;;22.70;90.70;;;;;;5018227;28;20547;-58
2022/05/25 13:23:53;;;;;;;2.05;1.95;;;22.70;99.90;;;;;;5017496;28;20099;-56
2022/05/25 13:26:33;;;;;;;2.17;1.90;;;22.90;97.40;;;;;;5014923;28;20056;-57
2022/05/25 13:29:11;;;;;;;2.03;1.73;;;23.00;89.50;;;;;;5032521;28;20127;-56
2022/05/25 13:31:55;;;;;;;2.88;2.15;;;23.00;90.60;;;;;;5017360;28;20041;-57
2022/05/25 13:34:22;;;;;;;1.65;1.55;;;23.00;84.90;;;;;;5032256;28;20474;-58
2022/05/25 13:37:00;;;;;;;2.03;1.25;;;22.80;89.70;;;;;;5032194;28;20071;-57
2022/05/25 13:39:29;;;;;;;2.15;1.70;;;22.60;86.60;;;;;;5017080;28;20049;-57
2022/05/25 13:42:01;;;;;;;6.50;2.30;;;22.40;89.60;;;;;;5032320;28;20550;-58
2022/05/25 13:44:42;;;;;;;6.40;1.73;;;22.20;91.30;;;;;;5036872;28;20043;-57
2022/05/25 13:47:17;;;;;;;2.30;2.03;;;21.90;93.30;;;;;;5037378;28;20564;-57
2022/05/25 13:49:57;;;;;;;3.10;1.55;;;21.80;96.50;;;;;;5036701;28;20102;-56
2022/05/25 13:52:33;;;;;;;2.90;2.00;;;21.80;99.90;;;;;;5035421;28;20045;-58
2022/05/25 13:55:21;;;;;;;4.88;2.20;;;21.80;99.90;;;;;;5035070;28;20821;-58
2022/05/25 13:57:54;;;;;;;3.10;2.20;;;21.70;97.00;;;;;;5037018;28;20037;-55
2022/05/25 14:00:27;;;;;;;2.20;1.97;;;21.80;99.90;;;;;;5036578;28;20095;-57